sensor_id;sensor_type;location;lat;lon;timestamp;P1;durP1;ratioP1;P2;durP2;ratioP2
77876;SDS011;67251;50.844;7.978;2024-03-07T00:02:04;17.67;;;6.38;;
77876;SDS011;67251;50.844;7.978;2024-03-07T00:04:29;15.73;;;5.85;;
77876;SDS011;67251;50.844;7.978;2024-03-07T00:06:55;16.52;;;6.60;;
77876;SDS011;67251;50.844;7.978;2024-03-07T00:09:20;19.20;;;5.65;;
77876;SDS011;67251;50.844;7.978;2024-03-07T00:11:49;15.80;;;5.40;;
77876;SDS011;67251;50.844;7.978;2024-03-07T00:14:15;15.35;;;6.65;;
77876;SDS011;67251;50.844;7.978;2024-03-07T00:16:40;19.58;;;7.05;;
77876;SDS011;67251;50.844;7.978;2024-03-07T00:19:06;19.42;;;6.38;;
77876;SDS011;67251;50.844;7.978;2024-03-07T00:21:31;14.48;;;6.40;;
77876;SDS011;67251;50.844;7.978;2024-03-07T00:23:57;19.27;;;6.50;;
77876;SDS011;67251;50.844;7.978;2024-03-07T00:26:22;19.58;;;6.18;;
77876;SDS011;67251;50.844;7.978;2024-03-07T00:28:47;19.38;;;7.38;;
77876;SDS011;67251;50.844;7.978;2024-03-07T00:31:13;18.40;;;7.45;;
77876;SDS011;67251;50.844;7.978;2024-03-07T00:33:38;18.83;;;6.70;;
77876;SDS011;67251;50.844;7.978;2024-03-07T00:36:04;18.10;;;6.38;;
77876;SDS011;67251;50.844;7.978;2024-03-07T00:38:30;20.08;;;6.75;;
77876;SDS011;67251;50.844;7.978;2024-03-07T00:40:56;16.30;;;5.95;;
77876;SDS011;67251;50.844;7.978;2024-03-07T00:43:21;14.43;;;6.00;;
77876;SDS011;67251;50.844;7.978;2024-03-07T00:45:47;17.25;;;6.63;;
77876;SDS011;67251;50.844;7.978;2024-03-07T00:48:15;17.15;;;6.28;;
77876;SDS011;67251;50.844;7.978;2024-03-07T00:50:41;16.60;;;7.32;;
77876;SDS011;67251;50.844;7.978;2024-03-07T00:53:07;21.38;;;6.95;;
77876;SDS011;67251;50.844;7.978;2024-03-07T00:55:33;17.40;;;6.13;;
77876;SDS011;67251;50.844;7.978;2024-03-07T00:57:58;19.20;;;6.97;;
77876;SDS011;67251;50.844;7.978;2024-03-07T01:00:24;20.65;;;6.72;;
77876;SDS011;67251;50.844;7.978;2024-03-07T01:02:49;17.33;;;6.03;;
77876;SDS011;67251;50.844;7.978;2024-03-07T01:05:18;17.83;;;5.43;;
77876;SDS011;67251;50.844;7.978;2024-03-07T01:07:44;21.80;;;8.45;;
77876;SDS011;67251;50.844;7.978;2024-03-07T01:10:11;15.57;;;7.40;;
77876;SDS011;67251;50.844;7.978;2024-03-07T01:12:38;19.77;;;7.18;;
77876;SDS011;67251;50.844;7.978;2024-03-07T01:15:03;18.80;;;6.85;;
77876;SDS011;67251;50.844;7.978;2024-03-07T01:17:32;16.27;;;6.28;;
77876;SDS011;67251;50.844;7.978;2024-03-07T01:19:57;16.15;;;6.18;;
77876;SDS011;67251;50.844;7.978;2024-03-07T01:22:23;16.92;;;6.85;;
77876;SDS011;67251;50.844;7.978;2024-03-07T01:24:49;18.70;;;6.82;;
77876;SDS011;67251;50.844;7.978;2024-03-07T01:27:15;17.70;;;7.03;;
77876;SDS011;67251;50.844;7.978;2024-03-07T01:29:41;16.48;;;6.50;;
77876;SDS011;67251;50.844;7.978;2024-03-07T01:32:06;20.00;;;6.35;;
77876;SDS011;67251;50.844;7.978;2024-03-07T01:34:33;18.80;;;6.93;;
77876;SDS011;67251;50.844;7.978;2024-03-07T01:36:58;19.83;;;6.75;;
77876;SDS011;67251;50.844;7.978;2024-03-07T01:42:11;20.15;;;7.07;;
77876;SDS011;67251;50.844;7.978;2024-03-07T01:44:36;16.10;;;6.50;;
77876;SDS011;67251;50.844;7.978;2024-03-07T01:47:02;16.00;;;6.43;;
77876;SDS011;67251;50.844;7.978;2024-03-07T01:49:29;17.48;;;6.35;;
77876;SDS011;67251;50.844;7.978;2024-03-07T01:51:55;19.52;;;6.82;;
77876;SDS011;67251;50.844;7.978;2024-03-07T01:54:22;16.85;;;6.07;;
77876;SDS011;67251;50.844;7.978;2024-03-07T01:56:47;17.52;;;6.30;;
77876;SDS011;67251;50.844;7.978;2024-03-07T01:59:13;19.95;;;7.22;;
77876;SDS011;67251;50.844;7.978;2024-03-07T02:01:40;13.02;;;5.22;;
77876;SDS011;67251;50.844;7.978;2024-03-07T02:04:05;18.90;;;6.15;;
77876;SDS011;67251;50.844;7.978;2024-03-07T02:06:30;18.55;;;6.57;;
77876;SDS011;67251;50.844;7.978;2024-03-07T02:08:57;18.17;;;6.03;;
77876;SDS011;67251;50.844;7.978;2024-03-07T02:11:22;14.82;;;5.43;;
77876;SDS011;67251;50.844;7.978;2024-03-07T02:13:48;21.60;;;6.82;;
77876;SDS011;67251;50.844;7.978;2024-03-07T02:16:14;16.98;;;6.47;;
77876;SDS011;67251;50.844;7.978;2024-03-07T02:18:39;20.95;;;6.68;;
77876;SDS011;67251;50.844;7.978;2024-03-07T02:21:05;18.33;;;5.82;;
77876;SDS011;67251;50.844;7.978;2024-03-07T02:23:37;16.20;;;5.80;;
77876;SDS011;67251;50.844;7.978;2024-03-07T02:26:02;17.77;;;6.85;;
77876;SDS011;67251;50.844;7.978;2024-03-07T02:28:29;19.95;;;6.20;;
77876;SDS011;67251;50.844;7.978;2024-03-07T02:30:54;16.98;;;5.80;;
77876;SDS011;67251;50.844;7.978;2024-03-07T02:33:19;17.25;;;6.13;;
77876;SDS011;67251;50.844;7.978;2024-03-07T02:35:45;19.83;;;6.55;;
77876;SDS011;67251;50.844;7.978;2024-03-07T02:38:10;22.10;;;6.30;;
77876;SDS011;67251;50.844;7.978;2024-03-07T02:40:35;18.75;;;6.35;;
77876;SDS011;67251;50.844;7.978;2024-03-07T02:43:01;19.75;;;6.60;;
77876;SDS011;67251;50.844;7.978;2024-03-07T02:45:30;18.20;;;5.90;;
77876;SDS011;67251;50.844;7.978;2024-03-07T02:47:55;16.70;;;5.82;;
77876;SDS011;67251;50.844;7.978;2024-03-07T02:50:21;17.20;;;6.70;;
77876;SDS011;67251;50.844;7.978;2024-03-07T02:52:49;15.52;;;5.50;;
77876;SDS011;67251;50.844;7.978;2024-03-07T02:55:17;17.45;;;6.43;;
77876;SDS011;67251;50.844;7.978;2024-03-07T02:57:44;17.50;;;6.47;;
77876;SDS011;67251;50.844;7.978;2024-03-07T03:00:10;16.50;;;6.72;;
77876;SDS011;67251;50.844;7.978;2024-03-07T03:02:48;17.95;;;7.10;;
77876;SDS011;67251;50.844;7.978;2024-03-07T03:05:14;18.40;;;6.20;;
77876;SDS011;67251;50.844;7.978;2024-03-07T03:07:40;18.20;;;6.82;;
77876;SDS011;67251;50.844;7.978;2024-03-07T03:10:06;18.95;;;6.85;;
77876;SDS011;67251;50.844;7.978;2024-03-07T03:12:35;21.90;;;7.22;;
77876;SDS011;67251;50.844;7.978;2024-03-07T03:15:03;20.05;;;6.85;;
77876;SDS011;67251;50.844;7.978;2024-03-07T03:17:30;21.33;;;6.32;;
77876;SDS011;67251;50.844;7.978;2024-03-07T03:19:55;18.30;;;5.95;;
77876;SDS011;67251;50.844;7.978;2024-03-07T03:22:21;21.63;;;6.70;;
77876;SDS011;67251;50.844;7.978;2024-03-07T03:24:47;21.85;;;7.07;;
77876;SDS011;67251;50.844;7.978;2024-03-07T03:27:12;21.30;;;6.53;;
77876;SDS011;67251;50.844;7.978;2024-03-07T03:29:38;19.83;;;7.72;;
77876;SDS011;67251;50.844;7.978;2024-03-07T03:32:03;24.30;;;7.03;;
77876;SDS011;67251;50.844;7.978;2024-03-07T03:34:29;18.48;;;5.85;;
77876;SDS011;67251;50.844;7.978;2024-03-07T03:36:54;20.90;;;6.75;;
77876;SDS011;67251;50.844;7.978;2024-03-07T03:39:19;18.40;;;6.85;;
77876;SDS011;67251;50.844;7.978;2024-03-07T03:41:45;18.27;;;6.43;;
77876;SDS011;67251;50.844;7.978;2024-03-07T03:44:11;16.30;;;5.97;;
77876;SDS011;67251;50.844;7.978;2024-03-07T03:46:36;21.95;;;7.20;;
77876;SDS011;67251;50.844;7.978;2024-03-07T03:49:02;20.95;;;6.80;;
77876;SDS011;67251;50.844;7.978;2024-03-07T03:51:27;18.55;;;6.45;;
77876;SDS011;67251;50.844;7.978;2024-03-07T03:53:53;15.38;;;6.18;;
77876;SDS011;67251;50.844;7.978;2024-03-07T03:56:18;19.40;;;7.40;;
77876;SDS011;67251;50.844;7.978;2024-03-07T03:58:58;16.98;;;5.35;;
77876;SDS011;67251;50.844;7.978;2024-03-07T04:01:23;21.98;;;7.57;;
77876;SDS011;67251;50.844;7.978;2024-03-07T04:03:49;21.30;;;6.53;;
77876;SDS011;67251;50.844;7.978;2024-03-07T04:06:14;16.05;;;5.30;;
77876;SDS011;67251;50.844;7.978;2024-03-07T04:08:40;17.90;;;6.75;;
77876;SDS011;67251;50.844;7.978;2024-03-07T04:11:05;18.08;;;7.03;;
77876;SDS011;67251;50.844;7.978;2024-03-07T04:13:34;20.95;;;6.50;;
77876;SDS011;67251;50.844;7.978;2024-03-07T04:15:59;20.50;;;7.60;;
77876;SDS011;67251;50.844;7.978;2024-03-07T04:18:25;17.33;;;6.60;;
77876;SDS011;67251;50.844;7.978;2024-03-07T04:20:51;17.95;;;6.78;;
77876;SDS011;67251;50.844;7.978;2024-03-07T04:23:16;16.27;;;6.00;;
77876;SDS011;67251;50.844;7.978;2024-03-07T04:25:43;18.10;;;6.28;;
77876;SDS011;67251;50.844;7.978;2024-03-07T04:28:08;20.88;;;6.85;;
77876;SDS011;67251;50.844;7.978;2024-03-07T04:30:34;20.00;;;6.78;;
77876;SDS011;67251;50.844;7.978;2024-03-07T04:32:59;18.40;;;6.82;;
77876;SDS011;67251;50.844;7.978;2024-03-07T04:35:25;20.85;;;7.22;;
77876;SDS011;67251;50.844;7.978;2024-03-07T04:37:50;59.67;;;19.33;;
77876;SDS011;67251;50.844;7.978;2024-03-07T04:40:17;58.17;;;19.00;;
77876;SDS011;67251;50.844;7.978;2024-03-07T04:42:44;31.92;;;9.77;;
77876;SDS011;67251;50.844;7.978;2024-03-07T04:45:11;18.58;;;7.03;;
77876;SDS011;67251;50.844;7.978;2024-03-07T04:47:38;18.73;;;6.50;;
77876;SDS011;67251;50.844;7.978;2024-03-07T04:50:08;15.57;;;6.18;;
77876;SDS011;67251;50.844;7.978;2024-03-07T04:52:36;17.80;;;7.00;;
77876;SDS011;67251;50.844;7.978;2024-03-07T04:55:03;16.67;;;6.32;;
77876;SDS011;67251;50.844;7.978;2024-03-07T04:57:30;19.15;;;7.30;;
77876;SDS011;67251;50.844;7.978;2024-03-07T04:59:55;20.38;;;7.93;;
77876;SDS011;67251;50.844;7.978;2024-03-07T05:02:21;18.25;;;6.57;;
77876;SDS011;67251;50.844;7.978;2024-03-07T05:04:48;19.90;;;7.65;;
77876;SDS011;67251;50.844;7.978;2024-03-07T05:07:15;19.98;;;7.85;;
77876;SDS011;67251;50.844;7.978;2024-03-07T05:09:41;21.48;;;7.10;;
77876;SDS011;67251;50.844;7.978;2024-03-07T05:12:06;17.25;;;7.63;;
77876;SDS011;67251;50.844;7.978;2024-03-07T05:14:31;20.40;;;7.38;;
77876;SDS011;67251;50.844;7.978;2024-03-07T05:16:57;19.00;;;7.70;;
77876;SDS011;67251;50.844;7.978;2024-03-07T05:22:01;14.57;;;5.97;;
77876;SDS011;67251;50.844;7.978;2024-03-07T05:24:29;20.48;;;6.88;;
77876;SDS011;67251;50.844;7.978;2024-03-07T05:26:55;17.52;;;6.82;;
77876;SDS011;67251;50.844;7.978;2024-03-07T05:29:21;20.63;;;7.40;;
77876;SDS011;67251;50.844;7.978;2024-03-07T05:31:47;22.30;;;8.30;;
77876;SDS011;67251;50.844;7.978;2024-03-07T05:34:13;18.98;;;6.97;;
77876;SDS011;67251;50.844;7.978;2024-03-07T05:36:40;23.33;;;7.90;;
77876;SDS011;67251;50.844;7.978;2024-03-07T05:39:10;19.65;;;6.85;;
77876;SDS011;67251;50.844;7.978;2024-03-07T05:41:40;21.00;;;6.43;;
77876;SDS011;67251;50.844;7.978;2024-03-07T05:44:06;20.50;;;7.97;;
77876;SDS011;67251;50.844;7.978;2024-03-07T05:46:39;21.63;;;7.40;;
77876;SDS011;67251;50.844;7.978;2024-03-07T05:49:13;20.38;;;7.55;;
77876;SDS011;67251;50.844;7.978;2024-03-07T05:51:39;20.15;;;6.85;;
77876;SDS011;67251;50.844;7.978;2024-03-07T05:54:07;18.88;;;7.85;;
77876;SDS011;67251;50.844;7.978;2024-03-07T05:56:33;20.98;;;8.75;;
77876;SDS011;67251;50.844;7.978;2024-03-07T05:59:04;20.30;;;7.78;;
77876;SDS011;67251;50.844;7.978;2024-03-07T06:01:32;24.13;;;8.20;;
77876;SDS011;67251;50.844;7.978;2024-03-07T06:04:06;21.17;;;8.13;;
77876;SDS011;67251;50.844;7.978;2024-03-07T06:06:35;21.55;;;8.77;;
77876;SDS011;67251;50.844;7.978;2024-03-07T06:09:09;22.60;;;8.20;;
77876;SDS011;67251;50.844;7.978;2024-03-07T06:11:38;14.68;;;6.13;;
77876;SDS011;67251;50.844;7.978;2024-03-07T06:14:04;9.80;;;4.70;;
77876;SDS011;67251;50.844;7.978;2024-03-07T06:16:31;19.45;;;7.45;;
77876;SDS011;67251;50.844;7.978;2024-03-07T06:19:02;17.27;;;7.43;;
77876;SDS011;67251;50.844;7.978;2024-03-07T06:21:28;18.80;;;7.88;;
77876;SDS011;67251;50.844;7.978;2024-03-07T06:23:57;22.55;;;7.85;;
77876;SDS011;67251;50.844;7.978;2024-03-07T06:26:29;20.02;;;7.65;;
77876;SDS011;67251;50.844;7.978;2024-03-07T06:29:06;18.02;;;8.07;;
77876;SDS011;67251;50.844;7.978;2024-03-07T06:31:32;20.63;;;7.72;;
77876;SDS011;67251;50.844;7.978;2024-03-07T06:33:58;21.98;;;9.05;;
77876;SDS011;67251;50.844;7.978;2024-03-07T06:36:24;22.83;;;8.20;;
77876;SDS011;67251;50.844;7.978;2024-03-07T06:38:50;22.27;;;8.05;;
77876;SDS011;67251;50.844;7.978;2024-03-07T06:41:15;27.00;;;8.27;;
77876;SDS011;67251;50.844;7.978;2024-03-07T06:43:42;18.88;;;7.93;;
77876;SDS011;67251;50.844;7.978;2024-03-07T06:46:09;26.65;;;9.60;;
77876;SDS011;67251;50.844;7.978;2024-03-07T06:48:35;22.00;;;8.23;;
77876;SDS011;67251;50.844;7.978;2024-03-07T06:51:01;24.23;;;8.50;;
77876;SDS011;67251;50.844;7.978;2024-03-07T06:53:26;25.33;;;9.35;;
77876;SDS011;67251;50.844;7.978;2024-03-07T06:55:53;23.17;;;8.90;;
77876;SDS011;67251;50.844;7.978;2024-03-07T06:58:22;18.90;;;7.57;;
77876;SDS011;67251;50.844;7.978;2024-03-07T07:00:48;23.90;;;8.68;;
77876;SDS011;67251;50.844;7.978;2024-03-07T07:03:16;25.52;;;9.07;;
77876;SDS011;67251;50.844;7.978;2024-03-07T07:05:43;27.13;;;9.05;;
77876;SDS011;67251;50.844;7.978;2024-03-07T07:08:09;22.40;;;7.93;;
77876;SDS011;67251;50.844;7.978;2024-03-07T07:10:35;23.33;;;8.65;;
77876;SDS011;67251;50.844;7.978;2024-03-07T07:13:01;27.60;;;9.40;;
77876;SDS011;67251;50.844;7.978;2024-03-07T07:15:29;26.15;;;9.38;;
77876;SDS011;67251;50.844;7.978;2024-03-07T07:17:55;22.30;;;7.55;;
77876;SDS011;67251;50.844;7.978;2024-03-07T07:20:20;22.15;;;8.60;;
77876;SDS011;67251;50.844;7.978;2024-03-07T07:22:46;22.60;;;8.70;;
77876;SDS011;67251;50.844;7.978;2024-03-07T07:25:12;18.48;;;7.78;;
77876;SDS011;67251;50.844;7.978;2024-03-07T07:30:11;20.92;;;7.93;;
77876;SDS011;67251;50.844;7.978;2024-03-07T07:32:38;24.30;;;9.05;;
77876;SDS011;67251;50.844;7.978;2024-03-07T07:35:05;24.70;;;9.45;;
77876;SDS011;67251;50.844;7.978;2024-03-07T07:37:37;28.58;;;10.77;;
77876;SDS011;67251;50.844;7.978;2024-03-07T07:40:04;27.45;;;10.73;;
77876;SDS011;67251;50.844;7.978;2024-03-07T07:42:37;27.10;;;11.05;;
77876;SDS011;67251;50.844;7.978;2024-03-07T07:45:05;24.60;;;9.70;;
77876;SDS011;67251;50.844;7.978;2024-03-07T07:47:31;27.00;;;10.13;;
77876;SDS011;67251;50.844;7.978;2024-03-07T07:49:57;13.15;;;6.15;;
77876;SDS011;67251;50.844;7.978;2024-03-07T07:52:23;23.10;;;9.38;;
77876;SDS011;67251;50.844;7.978;2024-03-07T07:54:48;21.77;;;10.63;;
77876;SDS011;67251;50.844;7.978;2024-03-07T07:57:14;20.00;;;8.88;;
77876;SDS011;67251;50.844;7.978;2024-03-07T07:59:39;21.85;;;9.25;;
77876;SDS011;67251;50.844;7.978;2024-03-07T08:02:05;13.38;;;6.60;;
77876;SDS011;67251;50.844;7.978;2024-03-07T08:04:31;25.58;;;10.07;;
77876;SDS011;67251;50.844;7.978;2024-03-07T08:06:58;19.98;;;9.80;;
77876;SDS011;67251;50.844;7.978;2024-03-07T08:09:24;21.75;;;9.75;;
77876;SDS011;67251;50.844;7.978;2024-03-07T08:11:49;27.77;;;9.52;;
77876;SDS011;67251;50.844;7.978;2024-03-07T08:14:15;22.15;;;7.35;;
77876;SDS011;67251;50.844;7.978;2024-03-07T08:16:40;24.23;;;10.27;;
77876;SDS011;67251;50.844;7.978;2024-03-07T08:19:06;17.25;;;7.18;;
77876;SDS011;67251;50.844;7.978;2024-03-07T08:21:32;13.88;;;5.32;;
77876;SDS011;67251;50.844;7.978;2024-03-07T08:23:57;16.80;;;6.97;;
77876;SDS011;67251;50.844;7.978;2024-03-07T08:26:23;25.05;;;9.60;;
77876;SDS011;67251;50.844;7.978;2024-03-07T08:28:48;19.38;;;8.30;;
77876;SDS011;67251;50.844;7.978;2024-03-07T08:31:13;18.23;;;7.55;;
77876;SDS011;67251;50.844;7.978;2024-03-07T08:33:39;11.95;;;5.30;;
77876;SDS011;67251;50.844;7.978;2024-03-07T08:36:05;13.70;;;6.68;;
77876;SDS011;67251;50.844;7.978;2024-03-07T08:38:32;23.77;;;9.52;;
77876;SDS011;67251;50.844;7.978;2024-03-07T08:40:58;21.10;;;9.10;;
77876;SDS011;67251;50.844;7.978;2024-03-07T08:43:23;18.52;;;8.63;;
77876;SDS011;67251;50.844;7.978;2024-03-07T08:45:49;11.32;;;5.25;;
77876;SDS011;67251;50.844;7.978;2024-03-07T08:48:14;25.95;;;9.30;;
77876;SDS011;67251;50.844;7.978;2024-03-07T08:50:39;17.95;;;7.72;;
77876;SDS011;67251;50.844;7.978;2024-03-07T08:53:05;22.15;;;9.05;;
77876;SDS011;67251;50.844;7.978;2024-03-07T08:55:31;17.05;;;6.60;;
77876;SDS011;67251;50.844;7.978;2024-03-07T08:57:56;22.52;;;8.50;;
77876;SDS011;67251;50.844;7.978;2024-03-07T09:00:22;15.18;;;6.20;;
77876;SDS011;67251;50.844;7.978;2024-03-07T09:02:48;24.52;;;8.63;;
77876;SDS011;67251;50.844;7.978;2024-03-07T09:05:18;22.48;;;8.80;;
77876;SDS011;67251;50.844;7.978;2024-03-07T09:07:45;21.55;;;8.57;;
77876;SDS011;67251;50.844;7.978;2024-03-07T09:10:12;21.02;;;8.38;;
77876;SDS011;67251;50.844;7.978;2024-03-07T09:12:39;19.77;;;7.85;;
77876;SDS011;67251;50.844;7.978;2024-03-07T09:15:05;18.05;;;8.02;;
77876;SDS011;67251;50.844;7.978;2024-03-07T09:17:30;20.55;;;7.70;;
77876;SDS011;67251;50.844;7.978;2024-03-07T09:19:56;20.52;;;8.25;;
77876;SDS011;67251;50.844;7.978;2024-03-07T09:22:22;19.63;;;7.43;;
77876;SDS011;67251;50.844;7.978;2024-03-07T09:24:47;15.50;;;6.57;;
77876;SDS011;67251;50.844;7.978;2024-03-07T09:27:12;21.20;;;8.00;;
77876;SDS011;67251;50.844;7.978;2024-03-07T09:29:44;15.70;;;6.43;;
77876;SDS011;67251;50.844;7.978;2024-03-07T09:32:12;18.30;;;7.22;;
77876;SDS011;67251;50.844;7.978;2024-03-07T09:34:37;18.75;;;7.22;;
77876;SDS011;67251;50.844;7.978;2024-03-07T09:37:03;10.23;;;4.40;;
77876;SDS011;67251;50.844;7.978;2024-03-07T09:39:28;20.33;;;7.65;;
77876;SDS011;67251;50.844;7.978;2024-03-07T09:41:56;15.38;;;7.45;;
77876;SDS011;67251;50.844;7.978;2024-03-07T09:44:22;19.63;;;7.10;;
77876;SDS011;67251;50.844;7.978;2024-03-07T09:46:52;18.73;;;6.90;;
77876;SDS011;67251;50.844;7.978;2024-03-07T09:49:19;16.23;;;6.90;;
77876;SDS011;67251;50.844;7.978;2024-03-07T09:51:46;15.50;;;5.85;;
77876;SDS011;67251;50.844;7.978;2024-03-07T09:54:17;15.43;;;6.90;;
77876;SDS011;67251;50.844;7.978;2024-03-07T09:56:44;19.30;;;7.18;;
77876;SDS011;67251;50.844;7.978;2024-03-07T09:59:11;15.63;;;6.30;;
77876;SDS011;67251;50.844;7.978;2024-03-07T10:01:38;14.57;;;6.20;;
77876;SDS011;67251;50.844;7.978;2024-03-07T10:04:07;18.13;;;7.57;;
77876;SDS011;67251;50.844;7.978;2024-03-07T10:06:37;12.73;;;5.13;;
77876;SDS011;67251;50.844;7.978;2024-03-07T10:09:05;13.98;;;5.30;;
77876;SDS011;67251;50.844;7.978;2024-03-07T10:11:32;15.18;;;6.03;;
77876;SDS011;67251;50.844;7.978;2024-03-07T10:13:58;13.35;;;6.38;;
77876;SDS011;67251;50.844;7.978;2024-03-07T10:16:23;14.60;;;5.95;;
77876;SDS011;67251;50.844;7.978;2024-03-07T10:18:49;16.48;;;6.85;;
77876;SDS011;67251;50.844;7.978;2024-03-07T10:21:18;14.93;;;6.05;;
77876;SDS011;67251;50.844;7.978;2024-03-07T10:23:50;10.55;;;5.45;;
77876;SDS011;67251;50.844;7.978;2024-03-07T10:26:18;14.50;;;6.10;;
77876;SDS011;67251;50.844;7.978;2024-03-07T10:28:43;11.68;;;5.13;;
77876;SDS011;67251;50.844;7.978;2024-03-07T10:31:09;11.00;;;5.03;;
77876;SDS011;67251;50.844;7.978;2024-03-07T10:33:39;12.82;;;5.90;;
77876;SDS011;67251;50.844;7.978;2024-03-07T10:36:05;13.15;;;6.53;;
77876;SDS011;67251;50.844;7.978;2024-03-07T10:41:01;8.32;;;3.40;;
77876;SDS011;67251;50.844;7.978;2024-03-07T10:43:29;13.35;;;6.07;;
77876;SDS011;67251;50.844;7.978;2024-03-07T10:45:54;12.27;;;5.18;;
77876;SDS011;67251;50.844;7.978;2024-03-07T10:48:22;9.63;;;4.20;;
77876;SDS011;67251;50.844;7.978;2024-03-07T10:53:45;16.10;;;6.75;;
77876;SDS011;67251;50.844;7.978;2024-03-07T10:56:32;10.30;;;4.57;;
77876;SDS011;67251;50.844;7.978;2024-03-07T11:01:43;16.42;;;6.43;;
77876;SDS011;67251;50.844;7.978;2024-03-07T11:04:15;15.48;;;6.40;;
77876;SDS011;67251;50.844;7.978;2024-03-07T11:06:43;18.88;;;7.22;;
77876;SDS011;67251;50.844;7.978;2024-03-07T11:09:10;16.02;;;6.80;;
77876;SDS011;67251;50.844;7.978;2024-03-07T11:11:39;14.65;;;5.75;;
77876;SDS011;67251;50.844;7.978;2024-03-07T11:14:09;14.23;;;6.53;;
77876;SDS011;67251;50.844;7.978;2024-03-07T11:16:37;12.80;;;5.30;;
77876;SDS011;67251;50.844;7.978;2024-03-07T11:21:44;10.90;;;3.45;;
77876;SDS011;67251;50.844;7.978;2024-03-07T11:24:09;13.27;;;5.30;;
77876;SDS011;67251;50.844;7.978;2024-03-07T11:26:47;10.57;;;4.85;;
77876;SDS011;67251;50.844;7.978;2024-03-07T11:32:08;13.30;;;6.03;;
77876;SDS011;67251;50.844;7.978;2024-03-07T11:34:37;15.27;;;6.57;;
77876;SDS011;67251;50.844;7.978;2024-03-07T11:37:06;15.32;;;5.88;;
77876;SDS011;67251;50.844;7.978;2024-03-07T11:39:43;14.63;;;6.03;;
77876;SDS011;67251;50.844;7.978;2024-03-07T11:42:28;12.73;;;5.28;;
77876;SDS011;67251;50.844;7.978;2024-03-07T11:45:01;14.52;;;6.55;;
77876;SDS011;67251;50.844;7.978;2024-03-07T11:47:35;15.73;;;6.32;;
77876;SDS011;67251;50.844;7.978;2024-03-07T11:50:03;11.27;;;5.15;;
77876;SDS011;67251;50.844;7.978;2024-03-07T11:52:36;13.40;;;5.80;;
77876;SDS011;67251;50.844;7.978;2024-03-07T11:55:07;12.52;;;5.35;;
77876;SDS011;67251;50.844;7.978;2024-03-07T11:57:33;12.95;;;5.82;;
77876;SDS011;67251;50.844;7.978;2024-03-07T11:59:58;12.80;;;5.88;;
77876;SDS011;67251;50.844;7.978;2024-03-07T12:02:33;11.77;;;6.13;;
77876;SDS011;67251;50.844;7.978;2024-03-07T12:04:58;14.13;;;5.38;;
77876;SDS011;67251;50.844;7.978;2024-03-07T12:07:24;13.45;;;5.35;;
77876;SDS011;67251;50.844;7.978;2024-03-07T12:09:49;8.25;;;4.22;;
77876;SDS011;67251;50.844;7.978;2024-03-07T12:12:21;14.48;;;5.22;;
77876;SDS011;67251;50.844;7.978;2024-03-07T12:14:47;14.85;;;5.45;;
77876;SDS011;67251;50.844;7.978;2024-03-07T12:17:16;12.23;;;4.68;;
77876;SDS011;67251;50.844;7.978;2024-03-07T12:19:41;10.48;;;4.20;;
77876;SDS011;67251;50.844;7.978;2024-03-07T12:22:11;11.48;;;4.82;;
77876;SDS011;67251;50.844;7.978;2024-03-07T12:24:47;10.48;;;4.40;;
77876;SDS011;67251;50.844;7.978;2024-03-07T12:27:15;12.30;;;4.10;;
77876;SDS011;67251;50.844;7.978;2024-03-07T12:29:41;15.35;;;6.25;;
77876;SDS011;67251;50.844;7.978;2024-03-07T12:32:13;11.40;;;5.20;;
77876;SDS011;67251;50.844;7.978;2024-03-07T12:34:44;8.40;;;3.47;;
77876;SDS011;67251;50.844;7.978;2024-03-07T12:37:11;10.10;;;4.18;;
77876;SDS011;67251;50.844;7.978;2024-03-07T12:42:26;9.25;;;3.80;;
77876;SDS011;67251;50.844;7.978;2024-03-07T12:44:53;8.63;;;3.95;;
77876;SDS011;67251;50.844;7.978;2024-03-07T12:47:18;10.15;;;4.32;;
77876;SDS011;67251;50.844;7.978;2024-03-07T12:49:44;11.05;;;4.07;;
77876;SDS011;67251;50.844;7.978;2024-03-07T12:52:10;7.90;;;3.80;;
77876;SDS011;67251;50.844;7.978;2024-03-07T12:54:40;8.85;;;4.18;;
77876;SDS011;67251;50.844;7.978;2024-03-07T12:57:06;11.00;;;4.80;;
77876;SDS011;67251;50.844;7.978;2024-03-07T12:59:33;10.05;;;4.32;;
77876;SDS011;67251;50.844;7.978;2024-03-07T13:02:08;11.80;;;4.95;;
77876;SDS011;67251;50.844;7.978;2024-03-07T13:04:35;12.38;;;4.55;;
77876;SDS011;67251;50.844;7.978;2024-03-07T13:07:07;11.57;;;4.80;;
77876;SDS011;67251;50.844;7.978;2024-03-07T13:09:33;11.07;;;5.35;;
77876;SDS011;67251;50.844;7.978;2024-03-07T13:11:59;12.18;;;4.80;;
77876;SDS011;67251;50.844;7.978;2024-03-07T13:14:34;12.13;;;4.65;;
77876;SDS011;67251;50.844;7.978;2024-03-07T13:17:00;10.63;;;4.78;;
77876;SDS011;67251;50.844;7.978;2024-03-07T13:19:29;12.90;;;5.50;;
77876;SDS011;67251;50.844;7.978;2024-03-07T13:21:55;11.50;;;4.30;;
77876;SDS011;67251;50.844;7.978;2024-03-07T13:24:21;12.65;;;4.88;;
77876;SDS011;67251;50.844;7.978;2024-03-07T13:26:48;11.63;;;5.43;;
77876;SDS011;67251;50.844;7.978;2024-03-07T13:29:13;8.77;;;4.47;;
77876;SDS011;67251;50.844;7.978;2024-03-07T13:31:39;13.98;;;5.43;;
77876;SDS011;67251;50.844;7.978;2024-03-07T13:34:07;13.05;;;4.65;;
77876;SDS011;67251;50.844;7.978;2024-03-07T13:36:42;13.50;;;5.72;;
77876;SDS011;67251;50.844;7.978;2024-03-07T13:39:08;11.18;;;4.53;;
77876;SDS011;67251;50.844;7.978;2024-03-07T13:41:39;11.65;;;5.05;;
77876;SDS011;67251;50.844;7.978;2024-03-07T13:44:07;13.30;;;4.72;;
77876;SDS011;67251;50.844;7.978;2024-03-07T13:46:32;12.13;;;4.70;;
77876;SDS011;67251;50.844;7.978;2024-03-07T13:49:01;12.90;;;5.13;;
77876;SDS011;67251;50.844;7.978;2024-03-07T13:51:40;12.13;;;4.18;;
77876;SDS011;67251;50.844;7.978;2024-03-07T13:54:15;10.80;;;4.43;;
77876;SDS011;67251;50.844;7.978;2024-03-07T14:20:21;13.98;;;5.40;;
77876;SDS011;67251;50.844;7.978;2024-03-07T14:31:42;13.77;;;5.97;;
77876;SDS011;67251;50.844;7.978;2024-03-07T14:34:18;11.00;;;4.80;;
77876;SDS011;67251;50.844;7.978;2024-03-07T14:36:46;12.25;;;5.13;;
77876;SDS011;67251;50.844;7.978;2024-03-07T14:39:20;13.82;;;6.38;;
77876;SDS011;67251;50.844;7.978;2024-03-07T14:41:55;12.32;;;5.13;;
77876;SDS011;67251;50.844;7.978;2024-03-07T14:44:24;16.45;;;6.43;;
77876;SDS011;67251;50.844;7.978;2024-03-07T14:46:58;14.50;;;5.03;;
77876;SDS011;67251;50.844;7.978;2024-03-07T14:49:30;13.73;;;5.25;;
77876;SDS011;67251;50.844;7.978;2024-03-07T14:51:57;11.35;;;4.28;;
77876;SDS011;67251;50.844;7.978;2024-03-07T14:54:22;16.17;;;6.13;;
77876;SDS011;67251;50.844;7.978;2024-03-07T14:56:48;14.13;;;5.90;;
77876;SDS011;67251;50.844;7.978;2024-03-07T14:59:14;12.57;;;5.30;;
77876;SDS011;67251;50.844;7.978;2024-03-07T15:01:40;11.07;;;5.25;;
77876;SDS011;67251;50.844;7.978;2024-03-07T15:04:06;12.93;;;5.22;;
77876;SDS011;67251;50.844;7.978;2024-03-07T15:06:35;15.00;;;5.78;;
77876;SDS011;67251;50.844;7.978;2024-03-07T15:09:01;12.80;;;5.22;;
77876;SDS011;67251;50.844;7.978;2024-03-07T15:11:29;12.20;;;4.88;;
77876;SDS011;67251;50.844;7.978;2024-03-07T15:13:59;11.85;;;5.13;;
77876;SDS011;67251;50.844;7.978;2024-03-07T15:16:26;17.13;;;6.28;;
77876;SDS011;67251;50.844;7.978;2024-03-07T15:18:53;13.88;;;4.75;;
77876;SDS011;67251;50.844;7.978;2024-03-07T15:21:19;13.55;;;6.25;;
77876;SDS011;67251;50.844;7.978;2024-03-07T15:23:45;15.05;;;6.50;;
77876;SDS011;67251;50.844;7.978;2024-03-07T15:26:12;11.45;;;4.22;;
77876;SDS011;67251;50.844;7.978;2024-03-07T15:28:38;17.55;;;6.63;;
77876;SDS011;67251;50.844;7.978;2024-03-07T15:31:03;12.75;;;5.40;;